Time;durP1;ratioP1;P1;durP2;ratioP2;P2;SDS_P1;SDS_P2;PMS_P1;PMS_P2;Temp;Humidity;BMP_temperature;BMP_pressure;BME280_temperature;BME280_humidity;BME280_pressure;Samples;Min_cycle;Max_cycle;Signal;HPM_P1;HPM_P2
2023/11/08 00:00:17;;;;;;;3.30;1.00;;;9.60;1.00;;;;;;5039464;28;20415;-86
2023/11/08 00:02:42;;;;;;;1.30;0.80;;;9.60;1.00;;;;;;5039127;28;20879;-85
2023/11/08 00:05:09;;;;;;;3.03;1.00;;;9.60;1.00;;;;;;5024581;28;20402;-86
2023/11/08 00:07:34;;;;;;;2.65;0.90;;;9.60;1.00;;;;;;5054364;28;20383;-82
2023/11/08 00:10:00;;;;;;;2.67;1.05;;;9.60;1.00;;;;;;5056335;28;20450;-83
2023/11/08 00:12:26;;;;;;;2.50;0.80;;;9.50;1.00;;;;;;5038590;28;20567;-83
2023/11/08 00:14:51;;;;;;;2.20;0.90;;;9.30;1.00;;;;;;5047786;28;20420;-85
2023/11/08 00:17:17;;;;;;;3.60;1.00;;;9.40;1.00;;;;;;5040032;28;20474;-85
2023/11/08 00:19:43;;;;;;;3.40;1.10;;;9.40;1.00;;;;;;5044169;28;20390;-84
2023/11/08 00:22:08;;;;;;;2.53;0.80;;;9.50;1.00;;;;;;5037970;28;20375;-84
2023/11/08 00:24:34;;;;;;;1.40;0.70;;;9.40;1.00;;;;;;5055055;28;20485;-84
2023/11/08 00:27:00;;;;;;;1.92;0.90;;;9.40;1.00;;;;;;5053024;28;20407;-86
2023/11/08 00:29:25;;;;;;;1.48;0.80;;;9.40;1.00;;;;;;5023006;28;20399;-86
2023/11/08 00:31:51;;;;;;;3.33;0.90;;;8.60;1.00;;;;;;5038537;28;20933;-84
2023/11/08 00:34:17;;;;;;;2.30;0.90;;;9.20;1.00;;;;;;5022100;28;20418;-85
2023/11/08 00:36:43;;;;;;;1.33;0.70;;;9.20;1.00;;;;;;5021025;28;20418;-84
2023/11/08 00:39:09;;;;;;;1.08;0.70;;;9.20;1.00;;;;;;5039508;28;20395;-85
2023/11/08 00:41:35;;;;;;;3.60;1.13;;;9.20;1.00;;;;;;5021386;28;20395;-84
2023/11/08 00:44:01;;;;;;;3.13;0.90;;;9.20;1.00;;;;;;5019916;28;20941;-85
2023/11/08 00:46:27;;;;;;;3.00;0.80;;;9.20;1.00;;;;;;5021660;28;20399;-85
2023/11/08 00:48:53;;;;;;;3.20;1.20;;;9.30;1.00;;;;;;5023049;28;20410;-84
2023/11/08 00:51:21;;;;;;;3.10;0.90;;;9.20;1.00;;;;;;5040180;28;20966;-84
2023/11/08 00:53:47;;;;;;;2.60;1.20;;;9.20;1.00;;;;;;5039172;28;20802;-84
2023/11/08 00:56:13;;;;;;;1.50;0.90;;;9.10;1.00;;;;;;5021050;28;20417;-86
2023/11/08 00:58:39;;;;;;;3.20;0.90;;;9.20;1.00;;;;;;5038837;28;20907;-85
2023/11/08 01:01:05;;;;;;;4.30;1.20;;;9.20;1.00;;;;;;5039663;28;20395;-85
2023/11/08 01:03:32;;;;;;;1.60;0.80;;;9.20;1.00;;;;;;5045612;28;20395;-83
2023/11/08 01:05:57;;;;;;;1.60;0.70;;;9.20;1.00;;;;;;5053814;28;20395;-84
2023/11/08 01:08:23;;;;;;;3.55;0.90;;;9.20;1.00;;;;;;5053132;28;20419;-83
2023/11/08 01:10:51;;;;;;;3.40;1.10;;;9.10;1.00;;;;;;5037400;28;20399;-83
2023/11/08 01:13:17;;;;;;;1.67;0.80;;;9.00;1.00;;;;;;5051859;28;20443;-84
2023/11/08 01:15:42;;;;;;;2.03;1.00;;;9.20;1.00;;;;;;5038162;28;20784;-84
2023/11/08 01:18:09;;;;;;;1.83;0.70;;;9.20;1.00;;;;;;5018153;28;20383;-84
2023/11/08 01:20:35;;;;;;;3.67;1.40;;;9.20;1.00;;;;;;5034400;28;20789;-84
2023/11/08 01:23:02;;;;;;;3.85;1.38;;;9.10;1.00;;;;;;5016251;28;20391;-85
2023/11/08 01:25:28;;;;;;;2.38;0.90;;;8.90;1.00;;;;;;5016575;28;20904;-84
2023/11/08 01:27:54;;;;;;;3.28;0.98;;;9.10;1.00;;;;;;5016754;28;20399;-84
2023/11/08 01:30:19;;;;;;;1.85;0.80;;;9.10;1.00;;;;;;5017808;28;20490;-84
2023/11/08 01:32:45;;;;;;;2.20;0.90;;;9.20;1.00;;;;;;5047578;22;20443;-87
2023/11/08 01:35:13;;;;;;;2.87;1.00;;;9.10;1.00;;;;;;5024492;28;20393;-84
2023/11/08 01:37:39;;;;;;;1.85;0.95;;;9.20;1.00;;;;;;5019112;28;20404;-85
2023/11/08 01:40:08;;;;;;;2.60;1.00;;;9.30;1.00;;;;;;5021411;28;20385;-86
2023/11/08 01:42:34;;;;;;;1.60;0.80;;;9.30;1.00;;;;;;5017241;28;20392;-85
2023/11/08 01:45:00;;;;;;;2.25;0.90;;;9.40;1.00;;;;;;5019272;28;20400;-85
2023/11/08 01:47:26;;;;;;;4.10;1.00;;;9.30;1.00;;;;;;5018485;28;20396;-85
2023/11/08 01:49:53;;;;;;;2.30;1.10;;;9.30;1.00;;;;;;5020298;28;20870;-85
2023/11/08 01:52:20;;;;;;;3.60;1.30;;;9.30;1.00;;;;;;5020889;28;20384;-85
2023/11/08 01:54:49;;;;;;;2.90;0.88;;;9.30;1.00;;;;;;5019781;28;20397;-85
2023/11/08 01:57:15;;;;;;;2.30;0.90;;;9.30;1.00;;;;;;5018358;28;20393;-85
2023/11/08 01:59:41;;;;;;;1.60;0.90;;;9.30;1.00;;;;;;5016647;28;20464;-85
2023/11/08 02:02:07;;;;;;;2.33;1.20;;;9.10;1.00;;;;;;5015729;28;20885;-86
2023/11/08 02:04:35;;;;;;;3.63;1.40;;;9.40;1.00;;;;;;5031754;28;20448;-84
2023/11/08 02:07:01;;;;;;;2.03;0.80;;;9.60;1.00;;;;;;5016207;28;20400;-85
2023/11/08 02:09:28;;;;;;;2.75;1.08;;;9.60;1.00;;;;;;5015219;28;20404;-84
2023/11/08 02:11:53;;;;;;;2.20;1.00;;;9.60;1.00;;;;;;5017627;28;20408;-85
2023/11/08 02:14:19;;;;;;;2.60;1.00;;;9.60;1.00;;;;;;5016557;28;20397;-85
2023/11/08 02:16:45;;;;;;;3.25;1.20;;;9.60;1.00;;;;;;5013631;28;20408;-84
2023/11/08 02:19:11;;;;;;;4.07;1.00;;;9.60;1.00;;;;;;5016268;28;20396;-85
2023/11/08 02:21:36;;;;;;;3.20;1.33;;;9.60;1.00;;;;;;5017402;28;20384;-84
2023/11/08 02:24:17;;;;;;;2.00;0.90;;;9.60;1.00;;;;;;5016867;28;20401;-84
2023/11/08 02:26:44;;;;;;;1.70;1.10;;;9.60;1.00;;;;;;5033437;28;20470;-85
2023/11/08 02:29:10;;;;;;;3.67;1.20;;;9.50;1.00;;;;;;5023678;28;20409;-86
2023/11/08 02:31:35;;;;;;;1.73;1.00;;;9.50;1.00;;;;;;5018082;28;20466;-85
2023/11/08 02:34:01;;;;;;;1.97;1.03;;;9.50;1.00;;;;;;5033239;28;20391;-85
2023/11/08 02:36:26;;;;;;;2.40;0.80;;;9.50;1.00;;;;;;5032719;28;20403;-84
2023/11/08 02:38:52;;;;;;;3.10;1.30;;;9.40;1.00;;;;;;5032805;28;20448;-84
2023/11/08 02:41:17;;;;;;;1.15;0.90;;;9.40;1.00;;;;;;5035502;28;20387;-84
2023/11/08 02:43:44;;;;;;;3.65;1.40;;;9.40;1.00;;;;;;5027557;28;20452;-85
2023/11/08 02:46:09;;;;;;;1.27;0.80;;;9.30;1.00;;;;;;5016377;28;20764;-85
2023/11/08 02:48:35;;;;;;;2.93;1.00;;;9.30;1.00;;;;;;5013392;28;20397;-85
2023/11/08 02:51:03;;;;;;;2.90;1.20;;;9.30;1.00;;;;;;5034192;28;20472;-85
2023/11/08 02:53:28;;;;;;;1.90;1.10;;;9.30;1.00;;;;;;5037302;28;20379;-85
2023/11/08 02:55:54;;;;;;;3.70;1.20;;;9.30;1.00;;;;;;5034142;28;20506;-86
2023/11/08 02:58:19;;;;;;;2.57;1.00;;;9.40;1.00;;;;;;5035018;28;20458;-84
2023/11/08 03:00:49;;;;;;;3.88;1.23;;;9.40;1.00;;;;;;5047449;28;20460;-86
2023/11/08 03:03:15;;;;;;;2.58;1.10;;;9.40;1.00;;;;;;5039509;28;20906;-86
2023/11/08 03:05:40;;;;;;;3.40;0.90;;;9.30;1.00;;;;;;5026950;28;20397;-84
2023/11/08 03:08:06;;;;;;;2.65;1.00;;;9.20;1.00;;;;;;5018282;28;20701;-85
2023/11/08 03:10:34;;;;;;;1.60;0.88;;;9.20;1.00;;;;;;5016104;28;20911;-85
2023/11/08 03:13:00;;;;;;;2.70;1.00;;;9.20;1.00;;;;;;5013480;28;20400;-85
2023/11/08 03:15:26;;;;;;;2.90;1.30;;;9.30;1.00;;;;;;5019030;28;20769;-84
2023/11/08 03:17:52;;;;;;;3.08;1.10;;;9.30;1.00;;;;;;5018012;28;20403;-87
2023/11/08 03:20:18;;;;;;;3.72;1.20;;;9.30;1.00;;;;;;5028818;28;20435;-85
2023/11/08 03:22:44;;;;;;;3.20;1.20;;;9.30;1.00;;;;;;5027697;28;20380;-85
2023/11/08 03:25:16;;;;;;;2.70;1.20;;;9.30;1.00;;;;;;5019581;28;20422;-85
2023/11/08 03:27:43;;;;;;;1.60;0.90;;;9.30;1.00;;;;;;5035247;28;20415;-84
2023/11/08 03:30:10;;;;;;;3.40;0.90;;;9.30;1.00;;;;;;5039166;28;20414;-84
2023/11/08 03:32:36;;;;;;;1.65;1.00;;;9.20;1.00;;;;;;5039585;28;20401;-86
2023/11/08 03:35:03;;;;;;;1.60;1.00;;;9.30;1.00;;;;;;5027021;28;21042;-84
2023/11/08 03:37:28;;;;;;;2.53;1.10;;;9.20;1.00;;;;;;5043878;28;20441;-85
2023/11/08 03:39:55;;;;;;;2.60;0.80;;;9.20;1.00;;;;;;5045390;28;20386;-83
2023/11/08 03:42:25;;;;;;;1.55;0.90;;;9.20;1.00;;;;;;5052864;28;20381;-84
2023/11/08 03:44:51;;;;;;;1.87;0.90;;;9.20;1.00;;;;;;5034738;28;20427;-87
2023/11/08 03:47:16;;;;;;;1.60;0.90;;;9.20;1.00;;;;;;5029932;28;20392;-85
2023/11/08 03:49:42;;;;;;;1.40;0.97;;;9.20;1.00;;;;;;5027571;28;20465;-84
2023/11/08 03:52:08;;;;;;;3.70;0.80;;;9.20;1.00;;;;;;5035378;28;20379;-85
2023/11/08 03:54:33;;;;;;;2.83;0.97;;;9.20;1.00;;;;;;5034472;28;20379;-84
2023/11/08 03:57:00;;;;;;;3.70;1.10;;;9.20;1.00;;;;;;5034073;28;20439;-84
2023/11/08 03:59:26;;;;;;;1.52;1.20;;;9.20;1.00;;;;;;5034279;28;20402;-84
2023/11/08 04:01:52;;;;;;;2.87;1.10;;;9.20;1.00;;;;;;5035655;28;20391;-86
2023/11/08 04:04:17;;;;;;;1.90;0.90;;;9.20;1.00;;;;;;5034893;28;20445;-85
2023/11/08 04:06:43;;;;;;;3.10;1.20;;;9.20;1.00;;;;;;5034724;28;20407;-85
2023/11/08 04:09:08;;;;;;;3.40;1.00;;;9.20;1.00;;;;;;5035015;28;20407;-84
2023/11/08 04:11:34;;;;;;;2.03;1.07;;;9.20;1.00;;;;;;5036183;28;20455;-85
2023/11/08 04:13:59;;;;;;;1.20;0.70;;;9.30;1.00;;;;;;5034081;28;20406;-86
2023/11/08 04:16:25;;;;;;;1.48;0.95;;;9.30;1.00;;;;;;5028746;28;20401;-85
2023/11/08 04:18:51;;;;;;;1.35;0.90;;;9.40;1.00;;;;;;5035024;28;20410;-85
2023/11/08 04:21:17;;;;;;;1.80;0.90;;;9.20;1.00;;;;;;5037574;28;20482;-85
2023/11/08 04:23:43;;;;;;;2.83;0.98;;;9.30;1.00;;;;;;5036665;28;20394;-85
2023/11/08 04:26:08;;;;;;;1.47;0.70;;;9.40;1.00;;;;;;5031938;28;20396;-85
2023/11/08 04:28:38;;;;;;;1.77;0.83;;;9.30;1.00;;;;;;5014708;28;20762;-85
2023/11/08 04:31:03;;;;;;;2.03;0.90;;;9.30;1.00;;;;;;5015386;28;20455;-85
2023/11/08 04:33:29;;;;;;;2.33;1.13;;;9.30;1.00;;;;;;5015319;28;20401;-85
2023/11/08 04:35:55;;;;;;;3.05;0.90;;;9.40;1.00;;;;;;5015867;28;20534;-85
2023/11/08 04:38:20;;;;;;;1.70;0.80;;;9.30;1.00;;;;;;5019253;28;20412;-86
2023/11/08 04:40:46;;;;;;;1.40;1.00;;;8.20;1.00;;;;;;5014538;28;20488;-86
2023/11/08 04:43:11;;;;;;;1.85;0.93;;;9.30;1.00;;;;;;5029758;28;20442;-85
2023/11/08 04:45:37;;;;;;;1.00;0.80;;;9.00;1.00;;;;;;5027785;28;20394;-85
2023/11/08 04:48:04;;;;;;;1.70;0.80;;;9.20;1.00;;;;;;5034398;28;20490;-86
2023/11/08 04:50:30;;;;;;;1.85;0.70;;;9.20;1.00;;;;;;5017702;28;20432;-85
2023/11/08 04:52:55;;;;;;;1.40;0.80;;;9.20;1.00;;;;;;5018717;28;20392;-85
2023/11/08 04:55:21;;;;;;;2.83;0.90;;;9.20;1.00;;;;;;5024505;28;20752;-85
2023/11/08 04:57:46;;;;;;;2.70;0.80;;;9.20;1.00;;;;;;5037488;28;20461;-85
2023/11/08 05:00:14;;;;;;;1.70;0.87;;;9.10;1.00;;;;;;5036319;28;20466;-85
2023/11/08 05:02:40;;;;;;;1.10;0.82;;;9.20;1.00;;;;;;5022772;28;20395;-84
2023/11/08 05:05:06;;;;;;;1.63;0.80;;;9.20;1.00;;;;;;5025015;28;20402;-86
2023/11/08 05:07:34;;;;;;;2.20;1.10;;;9.20;1.00;;;;;;5015604;28;20385;-85
2023/11/08 05:10:00;;;;;;;2.70;0.80;;;9.20;1.00;;;;;;5017945;28;20415;-85
2023/11/08 05:12:26;;;;;;;3.92;0.90;;;9.10;1.00;;;;;;5016689;28;20393;-85
2023/11/08 05:14:53;;;;;;;2.50;1.00;;;9.00;1.00;;;;;;5025223;28;20451;-84
2023/11/08 05:17:20;;;;;;;3.03;1.00;;;9.20;1.00;;;;;;5036509;28;20474;-84
2023/11/08 05:19:46;;;;;;;1.95;1.20;;;9.10;1.00;;;;;;5056041;28;20403;-87
2023/11/08 05:22:12;;;;;;;2.78;0.90;;;9.00;1.00;;;;;;5057814;28;20426;-86
2023/11/08 05:24:38;;;;;;;1.60;0.90;;;9.10;1.00;;;;;;5056407;28;20418;-88
2023/11/08 05:27:05;;;;;;;3.00;1.20;;;9.00;1.00;;;;;;5046461;28;20411;-84
2023/11/08 05:29:31;;;;;;;2.90;0.93;;;9.10;1.00;;;;;;5031121;28;20490;-85
2023/11/08 05:31:57;;;;;;;1.50;1.00;;;9.10;1.00;;;;;;5019363;28;20488;-86
2023/11/08 05:34:25;;;;;;;1.65;1.00;;;9.20;1.00;;;;;;5020620;28;20416;-86
2023/11/08 05:36:51;;;;;;;1.33;0.85;;;9.20;1.00;;;;;;5019277;28;20595;-85
2023/11/08 05:39:22;;;;;;;2.70;1.10;;;9.30;1.00;;;;;;5029129;28;20403;-85
2023/11/08 05:41:48;;;;;;;1.65;0.90;;;9.20;1.00;;;;;;5038805;28;20394;-86
2023/11/08 05:44:15;;;;;;;1.00;0.80;;;9.10;1.00;;;;;;5025473;28;20396;-85
2023/11/08 05:46:41;;;;;;;3.60;1.00;;;9.20;1.00;;;;;;5025133;28;20410;-85
2023/11/08 05:49:08;;;;;;;2.20;0.80;;;9.20;1.00;;;;;;5033997;28;20474;-85
2023/11/08 05:51:34;;;;;;;2.40;1.10;;;9.20;1.00;;;;;;5021553;28;20407;-87
2023/11/08 05:54:00;;;;;;;1.40;1.00;;;9.30;1.00;;;;;;5015212;28;20401;-85
2023/11/08 05:56:25;;;;;;;1.27;1.00;;;9.30;1.00;;;;;;5015816;28;20459;-86
2023/11/08 05:58:51;;;;;;;1.00;0.90;;;9.20;1.00;;;;;;5020066;28;20537;-86
2023/11/08 06:01:19;;;;;;;0.82;0.82;;;9.30;1.00;;;;;;5042582;28;20395;-87
2023/11/08 06:03:45;;;;;;;1.75;0.80;;;9.30;1.00;;;;;;5019424;28;20389;-85
2023/11/08 06:06:11;;;;;;;1.80;1.00;;;9.30;1.00;;;;;;5027849;28;20420;-87
2023/11/08 06:08:36;;;;;;;2.17;0.90;;;9.30;1.00;;;;;;5029450;28;20408;-85
2023/11/08 06:11:04;;;;;;;1.92;0.77;;;9.30;1.00;;;;;;5021248;28;20471;-86
2023/11/08 06:13:33;;;;;;;1.30;0.80;;;9.30;1.00;;;;;;5021184;28;20399;-85
2023/11/08 06:15:59;;;;;;;1.33;0.60;;;9.30;1.00;;;;;;5033211;28;20393;-85
2023/11/08 06:18:26;;;;;;;1.38;0.80;;;9.30;1.00;;;;;;5036458;28;20410;-85
2023/11/08 06:20:55;;;;;;;1.50;0.67;;;9.30;1.00;;;;;;5038030;28;20399;-84
2023/11/08 06:23:20;;;;;;;1.80;0.80;;;9.30;1.00;;;;;;5037737;28;20379;-84
2023/11/08 06:25:46;;;;;;;1.37;0.67;;;9.30;1.00;;;;;;5044995;28;20934;-86
2023/11/08 06:28:11;;;;;;;1.37;0.90;;;9.30;1.00;;;;;;5032400;28;20420;-85
2023/11/08 06:30:37;;;;;;;0.90;0.50;;;9.30;1.00;;;;;;5022163;28;20409;-85
2023/11/08 06:33:02;;;;;;;1.48;0.80;;;9.30;1.00;;;;;;5016558;28;20405;-85
2023/11/08 06:35:28;;;;;;;1.80;0.60;;;9.30;1.00;;;;;;5019136;28;20415;-86
2023/11/08 06:37:54;;;;;;;1.48;0.57;;;9.30;1.00;;;;;;5035385;28;20391;-86
2023/11/08 06:40:19;;;;;;;1.25;0.60;;;9.30;1.00;;;;;;5037756;28;20477;-85
2023/11/08 06:42:46;;;;;;;1.13;0.60;;;9.40;1.00;;;;;;5038730;28;20461;-85
2023/11/08 06:45:12;;;;;;;1.50;0.50;;;9.40;1.00;;;;;;5018749;28;20401;-85
2023/11/08 06:47:38;;;;;;;1.60;0.60;;;9.40;1.00;;;;;;5026091;28;20943;-86
2023/11/08 06:50:04;;;;;;;2.00;0.60;;;9.40;1.00;;;;;;5022041;28;20408;-85
2023/11/08 06:52:30;;;;;;;0.90;0.60;;;9.40;1.00;;;;;;5020304;28;20423;-86
2023/11/08 06:54:55;;;;;;;2.03;0.70;;;9.50;1.00;;;;;;5021528;28;20420;-82
2023/11/08 06:57:21;;;;;;;1.50;0.73;;;9.60;1.00;;;;;;5030137;28;20405;-77
2023/11/08 06:59:46;;;;;;;1.40;0.80;;;9.60;1.00;;;;;;5027497;28;20408;-77
2023/11/08 07:02:12;;;;;;;2.50;0.90;;;9.60;1.00;;;;;;5022767;28;20422;-79
2023/11/08 07:04:38;;;;;;;1.33;0.60;;;9.60;1.00;;;;;;5028627;28;20416;-82
2023/11/08 07:07:04;;;;;;;2.10;0.80;;;9.60;1.00;;;;;;5023526;28;20438;-80
2023/11/08 07:09:30;;;;;;;2.20;0.73;;;9.50;1.00;;;;;;5030957;28;20467;-81
2023/11/08 07:11:57;;;;;;;1.38;0.80;;;9.50;1.00;;;;;;5024106;28;20560;-83
2023/11/08 07:14:23;;;;;;;2.30;0.90;;;9.50;1.00;;;;;;5023377;28;20384;-81
2023/11/08 07:16:49;;;;;;;3.25;0.80;;;9.40;1.00;;;;;;5034471;28;20391;-81
2023/11/08 07:19:15;;;;;;;1.70;0.90;;;9.40;1.00;;;;;;5039562;28;20414;-81
2023/11/08 07:21:41;;;;;;;2.22;0.70;;;9.50;1.00;;;;;;5025412;28;20396;-80
2023/11/08 07:24:09;;;;;;;1.20;0.70;;;9.60;1.00;;;;;;5025289;28;20388;-81
2023/11/08 07:26:35;;;;;;;2.30;0.90;;;9.70;1.00;;;;;;5032348;28;20406;-81
2023/11/08 07:29:04;;;;;;;1.83;0.77;;;9.70;1.00;;;;;;5044867;28;20399;-82
2023/11/08 07:31:31;;;;;;;1.48;0.63;;;9.70;1.00;;;;;;5044035;28;20403;-81
2023/11/08 07:33:56;;;;;;;2.00;0.73;;;9.70;1.00;;;;;;5043992;28;20395;-81
2023/11/08 07:36:24;;;;;;;0.93;0.70;;;9.80;1.00;;;;;;5039524;28;20397;-81
2023/11/08 07:38:50;;;;;;;3.17;1.10;;;9.80;1.00;;;;;;5025460;28;20397;-81
2023/11/08 07:41:16;;;;;;;2.60;0.90;;;9.90;1.00;;;;;;5025594;28;20395;-81
2023/11/08 07:43:42;;;;;;;2.10;0.90;;;9.90;1.00;;;;;;5023281;28;20400;-80
2023/11/08 07:46:08;;;;;;;3.00;0.80;;;9.90;1.00;;;;;;5028838;28;20409;-81
2023/11/08 07:48:34;;;;;;;2.05;0.80;;;9.90;1.00;;;;;;5045502;28;20387;-80
2023/11/08 07:51:00;;;;;;;1.80;0.70;;;9.80;1.00;;;;;;5045590;28;20413;-81
2023/11/08 07:53:26;;;;;;;1.47;0.60;;;9.80;1.00;;;;;;5044556;28;20378;-81
2023/11/08 07:55:54;;;;;;;4.82;1.00;;;9.80;1.00;;;;;;5042802;28;20394;-81
2023/11/08 07:58:20;;;;;;;1.70;0.80;;;9.80;1.00;;;;;;5024880;28;20431;-81
2023/11/08 08:00:46;;;;;;;1.88;0.65;;;9.80;1.00;;;;;;5024259;28;20388;-80
2023/11/08 08:03:15;;;;;;;1.02;0.80;;;9.80;1.00;;;;;;5023607;28;20393;-83
2023/11/08 08:05:47;;;;;;;1.80;0.80;;;9.90;1.00;;;;;;5025202;28;20393;-82
2023/11/08 08:08:14;;;;;;;1.77;0.70;;;9.90;1.00;;;;;;5044211;28;20399;-81
2023/11/08 08:10:44;;;;;;;1.27;0.90;;;9.80;1.00;;;;;;5044903;28;20727;-81
2023/11/08 08:13:10;;;;;;;2.35;0.80;;;9.90;1.00;;;;;;5043781;28;20399;-81
2023/11/08 08:15:36;;;;;;;1.50;0.90;;;9.90;1.00;;;;;;5045645;28;20401;-81
2023/11/08 08:18:01;;;;;;;3.17;0.77;;;9.90;1.00;;;;;;5032284;28;20913;-81
2023/11/08 08:20:28;;;;;;;1.35;0.85;;;9.90;1.00;;;;;;5031732;28;20389;-83
2023/11/08 08:22:55;;;;;;;1.17;0.63;;;9.90;1.00;;;;;;5035722;28;20385;-80
2023/11/08 08:25:24;;;;;;;1.67;0.83;;;9.90;1.00;;;;;;5037292;28;20444;-80
2023/11/08 08:27:49;;;;;;;0.98;0.80;;;10.00;1.00;;;;;;5053177;28;20394;-80
2023/11/08 08:30:15;;;;;;;1.60;0.80;;;10.00;1.00;;;;;;5050601;28;20411;-81
2023/11/08 08:32:44;;;;;;;1.05;0.70;;;10.00;1.00;;;;;;5048660;28;20390;-81
2023/11/08 08:35:10;;;;;;;1.80;0.70;;;9.90;1.00;;;;;;5049883;28;20414;-80
2023/11/08 08:37:36;;;;;;;1.60;0.68;;;9.90;1.00;;;;;;5038989;28;20396;-79
2023/11/08 08:40:05;;;;;;;1.38;0.70;;;9.90;1.00;;;;;;5034176;28;20392;-78
2023/11/08 08:42:30;;;;;;;0.90;0.80;;;10.00;1.00;;;;;;5032427;28;20389;-80
2023/11/08 08:44:56;;;;;;;2.30;1.30;;;10.10;1.00;;;;;;5033795;28;20515;-80
2023/11/08 08:47:22;;;;;;;2.42;1.25;;;9.90;1.00;;;;;;5032700;28;20423;-80
2023/11/08 08:49:49;;;;;;;2.30;1.00;;;10.00;1.00;;;;;;5028262;28;20405;-80
2023/11/08 08:52:15;;;;;;;2.70;1.98;;;10.10;1.00;;;;;;5029728;28;20389;-81
2023/11/08 08:54:41;;;;;;;3.05;1.35;;;10.20;1.00;;;;;;5031394;28;20410;-83
2023/11/08 08:57:06;;;;;;;3.45;2.30;;;10.10;1.00;;;;;;5048627;28;20402;-82
2023/11/08 08:59:32;;;;;;;2.15;1.20;;;10.10;1.00;;;;;;5046792;28;20401;-81
2023/11/08 09:01:57;;;;;;;2.00;1.20;;;10.10;1.00;;;;;;5047212;28;20391;-81
2023/11/08 09:04:23;;;;;;;3.77;1.53;;;10.20;1.00;;;;;;5046881;28;20445;-81
2023/11/08 09:06:49;;;;;;;7.60;3.40;;;10.20;1.00;;;;;;5027231;28;20470;-81
2023/11/08 09:09:15;;;;;;;2.80;1.60;;;10.20;1.00;;;;;;5026391;28;20413;-82
2023/11/08 09:11:40;;;;;;;2.57;1.20;;;10.20;1.00;;;;;;5028200;28;20392;-82
2023/11/08 09:14:08;;;;;;;5.73;3.20;;;10.20;1.00;;;;;;5027314;28;20396;-82
2023/11/08 09:16:35;;;;;;;4.68;3.00;;;10.30;1.00;;;;;;5026867;28;20403;-81
2023/11/08 09:19:01;;;;;;;4.40;2.85;;;10.30;1.00;;;;;;5044591;28;20434;-82
2023/11/08 09:21:26;;;;;;;2.70;1.30;;;10.40;1.00;;;;;;5028581;28;20428;-82
2023/11/08 09:23:52;;;;;;;2.20;1.13;;;10.50;1.00;;;;;;5028416;28;20397;-83
2023/11/08 09:26:17;;;;;;;2.10;1.00;;;10.50;1.00;;;;;;5027486;28;20424;-82
2023/11/08 09:28:43;;;;;;;0.83;0.60;;;10.50;1.00;;;;;;5025502;28;20395;-82
2023/11/08 09:31:11;;;;;;;2.40;0.77;;;10.50;1.00;;;;;;5025807;28;20836;-82
2023/11/08 09:33:37;;;;;;;3.08;1.00;;;10.60;1.00;;;;;;5039981;28;20433;-83
2023/11/08 09:36:03;;;;;;;2.55;0.90;;;10.60;1.00;;;;;;5023273;28;20912;-82
2023/11/08 09:38:29;;;;;;;3.10;1.10;;;10.50;1.00;;;;;;5024637;28;20385;-85
2023/11/08 09:40:55;;;;;;;2.10;0.80;;;10.60;1.00;;;;;;5024442;28;20389;-81
2023/11/08 09:43:22;;;;;;;2.97;0.93;;;10.70;1.00;;;;;;5023984;28;20475;-82
2023/11/08 09:45:49;;;;;;;1.83;1.00;;;10.70;1.00;;;;;;5024253;28;20381;-81
2023/11/08 09:48:21;;;;;;;2.97;1.30;;;10.80;1.00;;;;;;5026392;28;20397;-81
2023/11/08 09:50:46;;;;;;;3.58;1.10;;;10.90;1.00;;;;;;5023136;28;20412;-83
2023/11/08 09:53:13;;;;;;;1.90;1.10;;;10.90;1.00;;;;;;5023203;28;20392;-81
2023/11/08 09:55:39;;;;;;;3.70;0.80;;;11.00;1.00;;;;;;5022356;28;20385;-82
2023/11/08 09:58:09;;;;;;;2.33;1.00;;;11.10;1.00;;;;;;5023953;28;20377;-81
2023/11/08 10:00:36;;;;;;;3.92;1.00;;;11.10;1.00;;;;;;5023898;28;20456;-81
2023/11/08 10:03:04;;;;;;;2.00;1.00;;;11.20;1.00;;;;;;5030225;28;20403;-82
2023/11/08 10:05:34;;;;;;;2.10;0.93;;;11.10;1.00;;;;;;5043169;28;20387;-81
2023/11/08 10:08:08;;;;;;;2.43;1.10;;;11.10;1.00;;;;;;5043478;28;20398;-83
2023/11/08 10:10:34;;;;;;;1.30;0.80;;;11.40;1.00;;;;;;5042896;28;20440;-82
2023/11/08 10:13:04;;;;;;;2.50;0.90;;;11.00;1.00;;;;;;5042793;28;20478;-82
2023/11/08 10:15:30;;;;;;;1.30;0.77;;;11.10;1.00;;;;;;5042720;28;20385;-82
2023/11/08 10:17:56;;;;;;;2.78;1.38;;;11.70;1.00;;;;;;5041106;28;20443;-82
2023/11/08 10:20:22;;;;;;;2.67;1.00;;;11.50;1.00;;;;;;5019517;28;20444;-84
2023/11/08 10:22:47;;;;;;;2.90;1.20;;;11.50;1.00;;;;;;5021142;28;20403;-83
2023/11/08 10:25:16;;;;;;;5.00;1.38;;;11.50;1.00;;;;;;5020563;28;20397;-81
2023/11/08 10:27:41;;;;;;;2.57;1.20;;;11.30;1.00;;;;;;5023075;28;20539;-82
2023/11/08 10:30:21;;;;;;;2.97;1.13;;;11.50;1.00;;;;;;5022130;28;20451;-82
2023/11/08 10:32:47;;;;;;;2.30;1.38;;;11.60;1.00;;;;;;5038699;28;20426;-81
2023/11/08 10:35:21;;;;;;;2.00;1.20;;;11.70;1.00;;;;;;5052887;28;20383;-81
2023/11/08 10:37:48;;;;;;;3.75;1.20;;;11.50;1.00;;;;;;5051919;28;20386;-81
2023/11/08 10:40:14;;;;;;;1.48;1.00;;;11.30;1.00;;;;;;5049184;28;20403;-83
2023/11/08 10:42:41;;;;;;;2.55;1.30;;;11.30;1.00;;;;;;5046635;28;20390;-82
2023/11/08 10:45:08;;;;;;;3.58;1.70;;;11.40;1.00;;;;;;5025985;28;20401;-82
2023/11/08 10:47:37;;;;;;;2.20;1.30;;;11.30;1.00;;;;;;5038911;28;20474;-84
2023/11/08 10:50:05;;;;;;;2.10;1.10;;;11.50;1.00;;;;;;5044787;28;20409;-84
2023/11/08 10:52:34;;;;;;;2.78;1.00;;;11.70;1.00;;;;;;5044892;28;20398;-82
2023/11/08 10:55:03;;;;;;;1.60;1.10;;;12.00;1.00;;;;;;5044474;28;20414;-82
2023/11/08 10:57:31;;;;;;;1.90;1.27;;;12.10;1.00;;;;;;5043345;28;20383;-83
2023/11/08 11:00:00;;;;;;;2.40;1.10;;;12.10;1.00;;;;;;5038057;28;20402;-81
2023/11/08 11:02:48;;;;;;;2.73;1.23;;;12.10;1.00;;;;;;5021425;28;20480;-82
2023/11/08 11:05:19;;;;;;;1.90;1.10;;;12.00;1.00;;;;;;5025346;28;20403;-82
2023/11/08 11:07:44;;;;;;;2.40;1.10;;;12.00;1.00;;;;;;5014720;28;20454;-81
2023/11/08 11:10:11;;;;;;;2.30;1.10;;;11.90;1.00;;;;;;5020703;28;20408;-83
2023/11/08 11:13:16;;;;;;;1.80;1.20;;;12.20;1.00;;;;;;5021849;28;20396;-85
2023/11/08 11:16:10;;;;;;;2.65;1.00;;;13.10;1.00;;;;;;5022333;28;20385;-82
2023/11/08 11:18:42;;;;;;;3.03;1.00;;;13.40;1.00;;;;;;5022188;28;20416;-83
2023/11/08 11:21:39;;;;;;;2.45;1.05;;;13.70;1.00;;;;;;5029699;28;20395;-80
2023/11/08 11:24:34;;;;;;;2.47;1.20;;;13.70;1.00;;;;;;5022338;28;20389;-84
2023/11/08 11:27:00;;;;;;;2.20;1.30;;;14.90;1.00;;;;;;5016581;28;20397;-80
2023/11/08 11:29:29;;;;;;;3.15;1.50;;;14.70;1.00;;;;;;5022155;28;20405;-81
2023/11/08 11:31:55;;;;;;;2.73;1.30;;;15.20;1.00;;;;;;5024482;28;20389;-81
2023/11/08 11:34:20;;;;;;;1.80;1.00;;;15.10;1.00;;;;;;5024934;28;20385;-81
2023/11/08 11:37:12;;;;;;;2.60;1.17;;;15.50;1.00;;;;;;5023262;28;20391;-82
2023/11/08 11:39:41;;;;;;;1.10;0.80;;;15.70;1.00;;;;;;5037438;28;20398;-81
2023/11/08 11:42:19;;;;;;;2.08;0.80;;;15.50;1.00;;;;;;5043728;28;20379;-81
2023/11/08 11:44:51;;;;;;;1.70;0.80;;;15.60;1.00;;;;;;5026899;28;20484;-81
2023/11/08 11:47:30;;;;;;;1.60;0.70;;;15.40;1.00;;;;;;5023556;28;20469;-82
2023/11/08 11:50:02;;;;;;;1.30;0.80;;;14.60;1.00;;;;;;5025795;28;20408;-81
2023/11/08 11:52:30;;;;;;;2.08;0.75;;;15.70;1.00;;;;;;5028540;28;20396;-82
2023/11/08 11:54:57;;;;;;;2.00;0.70;;;14.90;1.00;;;;;;5026497;28;20389;-82
2023/11/08 11:57:25;;;;;;;1.33;0.70;;;15.00;1.00;;;;;;5027084;28;20445;-82
2023/11/08 12:00:01;;;;;;;1.10;0.60;;;15.60;1.00;;;;;;5024982;28;20395;-80
2023/11/08 12:02:28;;;;;;;1.30;0.70;;;15.90;1.00;;;;;;5025225;28;20405;-81
2023/11/08 12:04:56;;;;;;;1.50;0.70;;;16.20;1.00;;;;;;5026810;28;20393;-83
2023/11/08 12:07:22;;;;;;;2.90;0.70;;;16.30;1.00;;;;;;5025598;28;20385;-81
2023/11/08 12:09:48;;;;;;;1.70;0.60;;;15.70;1.00;;;;;;5026427;28;20484;-81
2023/11/08 12:12:33;;;;;;;0.75;0.60;;;16.10;1.00;;;;;;5026024;28;20797;-80
2023/11/08 12:15:15;;;;;;;1.30;0.60;;;15.90;1.00;;;;;;5032179;28;20485;-81
2023/11/08 12:17:48;;;;;;;2.30;0.70;;;16.20;1.00;;;;;;5046018;28;20379;-81
2023/11/08 12:20:14;;;;;;;3.00;0.60;;;15.20;1.00;;;;;;5043225;28;20405;-81
2023/11/08 12:22:47;;;;;;;2.57;0.70;;;15.20;1.00;;;;;;5018358;28;20402;-81
2023/11/08 12:25:12;;;;;;;1.40;0.88;;;15.40;1.00;;;;;;5022935;28;20401;-82
2023/11/08 12:27:38;;;;;;;1.77;0.77;;;15.10;1.00;;;;;;5023737;28;20483;-81
2023/11/08 12:30:04;;;;;;;2.60;0.80;;;14.90;1.00;;;;;;5025987;28;20428;-84
2023/11/08 12:32:30;;;;;;;2.45;0.80;;;14.60;1.00;;;;;;5025172;28;20797;-81
2023/11/08 12:34:56;;;;;;;3.20;1.10;;;15.20;1.00;;;;;;5025585;28;20385;-81
2023/11/08 12:37:22;;;;;;;2.47;0.90;;;15.70;1.00;;;;;;5028208;28;20987;-84
2023/11/08 12:39:47;;;;;;;1.90;0.70;;;15.70;1.00;;;;;;5025685;28;21030;-83
2023/11/08 12:42:14;;;;;;;2.20;0.70;;;15.50;1.00;;;;;;5024838;28;20392;-80
2023/11/08 12:44:50;;;;;;;2.10;1.00;;;15.10;1.00;;;;;;5024182;28;20397;-80
2023/11/08 12:47:16;;;;;;;2.10;0.85;;;14.60;1.00;;;;;;5018509;28;20420;-84
2023/11/08 12:49:42;;;;;;;2.90;0.90;;;14.30;1.00;;;;;;5022328;28;20413;-84
2023/11/08 12:52:11;;;;;;;2.10;0.80;;;14.60;1.00;;;;;;5018880;28;20396;-84
2023/11/08 12:54:37;;;;;;;3.00;1.00;;;14.40;1.00;;;;;;5018627;28;20404;-85
2023/11/08 12:57:03;;;;;;;2.60;0.77;;;14.60;1.00;;;;;;5029654;28;20473;-84
2023/11/08 12:59:29;;;;;;;2.10;1.00;;;15.10;1.00;;;;;;5043702;28;20917;-84
2023/11/08 13:02:04;;;;;;;2.28;0.80;;;15.40;1.00;;;;;;5040298;28;20422;-83
2023/11/08 13:04:31;;;;;;;1.00;0.73;;;15.00;1.00;;;;;;5048726;28;20418;-83